sensor_id;sensor_type;location;lat;lon;timestamp;temperature;humidity
79497;SHT31;75160;53.138;18.020;2024-03-08T00:00:39;0.75;72.85
79497;SHT31;75160;53.138;18.020;2024-03-08T00:02:03;0.72;72.80
79497;SHT31;75160;53.138;18.020;2024-03-08T00:03:06;0.71;72.90
79497;SHT31;75160;53.138;18.020;2024-03-08T00:04:07;0.71;72.85
79497;SHT31;75160;53.138;18.020;2024-03-08T00:05:09;0.70;72.82
79497;SHT31;75160;53.138;18.020;2024-03-08T00:06:11;0.67;72.80
79497;SHT31;75160;53.138;18.020;2024-03-08T00:07:13;0.67;72.80
79497;SHT31;75160;53.138;18.020;2024-03-08T00:08:15;0.67;72.80
79497;SHT31;75160;53.138;18.020;2024-03-08T00:09:18;0.63;72.85
79497;SHT31;75160;53.138;18.020;2024-03-08T00:10:20;0.65;72.93
79497;SHT31;75160;53.138;18.020;2024-03-08T00:11:22;0.63;73.00
79497;SHT31;75160;53.138;18.020;2024-03-08T00:12:27;0.62;73.00
79497;SHT31;75160;53.138;18.020;2024-03-08T00:13:29;0.63;73.07
79497;SHT31;75160;53.138;18.020;2024-03-08T00:14:31;0.63;73.10
79497;SHT31;75160;53.138;18.020;2024-03-08T00:15:34;0.60;73.00
79497;SHT31;75160;53.138;18.020;2024-03-08T00:16:36;0.59;73.05
79497;SHT31;75160;53.138;18.020;2024-03-08T00:17:39;0.58;73.20
79497;SHT31;75160;53.138;18.020;2024-03-08T00:18:42;0.58;73.20
79497;SHT31;75160;53.138;18.020;2024-03-08T00:19:45;0.56;73.20
79497;SHT31;75160;53.138;18.020;2024-03-08T00:20:47;0.56;73.20
79497;SHT31;75160;53.138;18.020;2024-03-08T00:21:49;0.55;73.20
79497;SHT31;75160;53.138;18.020;2024-03-08T00:22:50;0.55;73.28
79497;SHT31;75160;53.138;18.020;2024-03-08T00:23:52;0.53;73.20
79497;SHT31;75160;53.138;18.020;2024-03-08T00:24:56;0.52;73.18
79497;SHT31;75160;53.138;18.020;2024-03-08T00:25:57;0.51;73.20
79497;SHT31;75160;53.138;18.020;2024-03-08T00:26:59;0.51;73.22
79497;SHT31;75160;53.138;18.020;2024-03-08T00:28:01;0.51;73.25
79497;SHT31;75160;53.138;18.020;2024-03-08T00:29:03;0.51;73.30
79497;SHT31;75160;53.138;18.020;2024-03-08T00:30:05;0.50;73.30
79497;SHT31;75160;53.138;18.020;2024-03-08T00:31:08;0.49;73.30
79497;SHT31;75160;53.138;18.020;2024-03-08T00:32:09;0.48;73.35
79497;SHT31;75160;53.138;18.020;2024-03-08T00:33:12;0.49;73.47
79497;SHT31;75160;53.138;18.020;2024-03-08T00:34:14;0.47;73.53
79497;SHT31;75160;53.138;18.020;2024-03-08T00:35:16;0.48;73.60
79497;SHT31;75160;53.138;18.020;2024-03-08T00:36:18;0.47;73.60
79497;SHT31;75160;53.138;18.020;2024-03-08T00:37:20;0.49;73.60
79497;SHT31;75160;53.138;18.020;2024-03-08T00:38:23;0.48;73.68
79497;SHT31;75160;53.138;18.020;2024-03-08T00:39:25;0.48;73.78
79497;SHT31;75160;53.138;18.020;2024-03-08T00:40:26;0.48;73.72
79497;SHT31;75160;53.138;18.020;2024-03-08T00:41:30;0.47;73.70
79497;SHT31;75160;53.138;18.020;2024-03-08T00:42:32;0.47;73.70
79497;SHT31;75160;53.138;18.020;2024-03-08T00:43:34;0.47;73.72
79497;SHT31;75160;53.138;18.020;2024-03-08T00:44:36;0.45;73.80
79497;SHT31;75160;53.138;18.020;2024-03-08T00:45:39;0.44;73.85
79497;SHT31;75160;53.138;18.020;2024-03-08T00:46:43;0.44;73.90
79497;SHT31;75160;53.138;18.020;2024-03-08T00:47:47;0.45;74.00
79497;SHT31;75160;53.138;18.020;2024-03-08T00:48:48;0.44;74.00
79497;SHT31;75160;53.138;18.020;2024-03-08T00:49:50;0.43;74.00
79497;SHT31;75160;53.138;18.020;2024-03-08T00:50:53;0.42;74.03
79497;SHT31;75160;53.138;18.020;2024-03-08T00:51:55;0.40;74.10
79497;SHT31;75160;53.138;18.020;2024-03-08T00:52:57;0.38;74.07
79497;SHT31;75160;53.138;18.020;2024-03-08T00:53:58;0.38;74.07
79497;SHT31;75160;53.138;18.020;2024-03-08T00:55:01;0.37;74.03
79497;SHT31;75160;53.138;18.020;2024-03-08T00:56:03;0.34;74.10
79497;SHT31;75160;53.138;18.020;2024-03-08T00:57:05;0.34;74.10
79497;SHT31;75160;53.138;18.020;2024-03-08T00:58:07;0.34;74.18
79497;SHT31;75160;53.138;18.020;2024-03-08T00:59:10;0.34;74.20
79497;SHT31;75160;53.138;18.020;2024-03-08T01:00:14;0.32;74.15
79497;SHT31;75160;53.138;18.020;2024-03-08T01:01:18;0.32;74.10
79497;SHT31;75160;53.138;18.020;2024-03-08T01:02:21;0.30;74.10
79497;SHT31;75160;53.138;18.020;2024-03-08T01:03:24;0.31;74.20
79497;SHT31;75160;53.138;18.020;2024-03-08T01:04:26;0.30;74.28
79497;SHT31;75160;53.138;18.020;2024-03-08T01:05:30;0.28;74.30
79497;SHT31;75160;53.138;18.020;2024-03-08T01:06:32;0.27;74.28
79497;SHT31;75160;53.138;18.020;2024-03-08T01:07:34;0.28;74.28
79497;SHT31;75160;53.138;18.020;2024-03-08T01:08:37;0.26;74.30
79497;SHT31;75160;53.138;18.020;2024-03-08T01:09:43;0.25;74.30
79497;SHT31;75160;53.138;18.020;2024-03-08T01:10:45;0.23;74.38
79497;SHT31;75160;53.138;18.020;2024-03-08T01:11:47;0.22;74.40
79497;SHT31;75160;53.138;18.020;2024-03-08T01:12:48;0.20;74.35
79497;SHT31;75160;53.138;18.020;2024-03-08T01:13:51;0.18;74.43
79497;SHT31;75160;53.138;18.020;2024-03-08T01:14:54;0.17;74.50
79497;SHT31;75160;53.138;18.020;2024-03-08T01:15:58;0.18;74.50
79497;SHT31;75160;53.138;18.020;2024-03-08T01:17:00;0.17;74.55
79497;SHT31;75160;53.138;18.020;2024-03-08T01:18:02;0.16;74.55
79497;SHT31;75160;53.138;18.020;2024-03-08T01:19:04;0.14;74.53
79497;SHT31;75160;53.138;18.020;2024-03-08T01:20:07;0.14;74.50
79497;SHT31;75160;53.138;18.020;2024-03-08T01:21:12;0.13;74.50
79497;SHT31;75160;53.138;18.020;2024-03-08T01:22:14;0.12;74.43
79497;SHT31;75160;53.138;18.020;2024-03-08T01:23:16;0.11;74.47
79497;SHT31;75160;53.138;18.020;2024-03-08T01:24:19;0.11;74.50
79497;SHT31;75160;53.138;18.020;2024-03-08T01:25:20;0.10;74.53
79497;SHT31;75160;53.138;18.020;2024-03-08T01:26:22;0.10;74.55
79497;SHT31;75160;53.138;18.020;2024-03-08T01:27:24;0.10;74.60
79497;SHT31;75160;53.138;18.020;2024-03-08T01:28:26;0.10;74.68
79497;SHT31;75160;53.138;18.020;2024-03-08T01:29:28;0.10;74.70
79497;SHT31;75160;53.138;18.020;2024-03-08T01:30:31;0.09;74.72
79497;SHT31;75160;53.138;18.020;2024-03-08T01:31:34;0.09;74.80
79497;SHT31;75160;53.138;18.020;2024-03-08T01:32:37;0.08;74.88
79497;SHT31;75160;53.138;18.020;2024-03-08T01:33:39;0.09;74.82
79497;SHT31;75160;53.138;18.020;2024-03-08T01:34:41;0.09;74.80
79497;SHT31;75160;53.138;18.020;2024-03-08T01:35:43;0.07;74.75
79497;SHT31;75160;53.138;18.020;2024-03-08T01:36:45;0.07;74.75
79497;SHT31;75160;53.138;18.020;2024-03-08T01:37:46;0.07;74.80
79497;SHT31;75160;53.138;18.020;2024-03-08T01:38:51;0.07;74.85
79497;SHT31;75160;53.138;18.020;2024-03-08T01:39:54;0.06;74.95
79497;SHT31;75160;53.138;18.020;2024-03-08T01:40:55;0.05;75.00
79497;SHT31;75160;53.138;18.020;2024-03-08T01:41:57;0.03;75.10
79497;SHT31;75160;53.138;18.020;2024-03-08T01:43:15;0.04;75.13
79497;SHT31;75160;53.138;18.020;2024-03-08T01:44:37;0.04;75.10
79497;SHT31;75160;53.138;18.020;2024-03-08T01:45:40;0.01;75.07
79497;SHT31;75160;53.138;18.020;2024-03-08T01:46:43;0.01;75.10
79497;SHT31;75160;53.138;18.020;2024-03-08T01:47:50;0.00;75.20
79497;SHT31;75160;53.138;18.020;2024-03-08T01:48:54;-0.00;75.15
79497;SHT31;75160;53.138;18.020;2024-03-08T01:49:57;-0.00;75.15
79497;SHT31;75160;53.138;18.020;2024-03-08T01:51:00;-0.02;75.13
79497;SHT31;75160;53.138;18.020;2024-03-08T01:52:02;-0.03;75.20
79497;SHT31;75160;53.138;18.020;2024-03-08T01:53:05;-0.04;75.25
79497;SHT31;75160;53.138;18.020;2024-03-08T01:54:09;-0.05;75.35
79497;SHT31;75160;53.138;18.020;2024-03-08T01:55:12;-0.06;75.35
79497;SHT31;75160;53.138;18.020;2024-03-08T01:56:17;-0.05;75.40
79497;SHT31;75160;53.138;18.020;2024-03-08T01:57:19;-0.06;75.40
79497;SHT31;75160;53.138;18.020;2024-03-08T01:58:22;-0.06;75.30
79497;SHT31;75160;53.138;18.020;2024-03-08T01:59:25;-0.08;75.38
79497;SHT31;75160;53.138;18.020;2024-03-08T02:00:28;-0.09;75.50
79497;SHT31;75160;53.138;18.020;2024-03-08T02:01:31;-0.09;75.50
79497;SHT31;75160;53.138;18.020;2024-03-08T02:02:35;-0.11;75.53
79497;SHT31;75160;53.138;18.020;2024-03-08T02:03:39;-0.10;75.60
79497;SHT31;75160;53.138;18.020;2024-03-08T02:04:41;-0.12;75.55
79497;SHT31;75160;53.138;18.020;2024-03-08T02:05:45;-0.12;75.50
79497;SHT31;75160;53.138;18.020;2024-03-08T02:06:47;-0.15;75.53
79497;SHT31;75160;53.138;18.020;2024-03-08T02:07:49;-0.15;75.53
79497;SHT31;75160;53.138;18.020;2024-03-08T02:08:51;-0.15;75.60
79497;SHT31;75160;53.138;18.020;2024-03-08T02:09:54;-0.14;75.60
79497;SHT31;75160;53.138;18.020;2024-03-08T02:10:56;-0.12;75.60
79497;SHT31;75160;53.138;18.020;2024-03-08T02:11:58;-0.12;75.50
79497;SHT31;75160;53.138;18.020;2024-03-08T02:13:03;-0.12;75.50
79497;SHT31;75160;53.138;18.020;2024-03-08T02:14:06;-0.11;75.60
79497;SHT31;75160;53.138;18.020;2024-03-08T02:15:08;-0.12;75.63
79497;SHT31;75160;53.138;18.020;2024-03-08T02:16:10;-0.09;75.70
79497;SHT31;75160;53.138;18.020;2024-03-08T02:17:12;-0.08;75.63
79497;SHT31;75160;53.138;18.020;2024-03-08T02:18:14;-0.06;75.60
79497;SHT31;75160;53.138;18.020;2024-03-08T02:19:16;-0.05;75.60
79497;SHT31;75160;53.138;18.020;2024-03-08T02:20:17;-0.02;75.60
79497;SHT31;75160;53.138;18.020;2024-03-08T02:21:21;-0.01;75.53
79497;SHT31;75160;53.138;18.020;2024-03-08T02:22:23;0.01;75.50
79497;SHT31;75160;53.138;18.020;2024-03-08T02:23:26;0.03;75.57
79497;SHT31;75160;53.138;18.020;2024-03-08T02:24:28;0.04;75.60
79497;SHT31;75160;53.138;18.020;2024-03-08T02:25:30;0.05;75.60
79497;SHT31;75160;53.138;18.020;2024-03-08T02:26:32;0.06;75.53
79497;SHT31;75160;53.138;18.020;2024-03-08T02:27:34;0.05;75.43
79497;SHT31;75160;53.138;18.020;2024-03-08T02:28:36;0.07;75.50
79497;SHT31;75160;53.138;18.020;2024-03-08T02:29:40;0.09;75.53
79497;SHT31;75160;53.138;18.020;2024-03-08T02:30:44;0.09;75.53
79497;SHT31;75160;53.138;18.020;2024-03-08T02:31:52;0.09;75.50
79497;SHT31;75160;53.138;18.020;2024-03-08T02:32:54;0.09;75.50
79497;SHT31;75160;53.138;18.020;2024-03-08T02:33:58;0.09;75.43
79497;SHT31;75160;53.138;18.020;2024-03-08T02:35:00;0.09;75.40
79497;SHT31;75160;53.138;18.020;2024-03-08T02:36:02;0.07;75.40
79497;SHT31;75160;53.138;18.020;2024-03-08T02:37:05;0.10;75.40
79497;SHT31;75160;53.138;18.020;2024-03-08T02:38:07;0.08;75.45
79497;SHT31;75160;53.138;18.020;2024-03-08T02:39:11;0.09;75.50
79497;SHT31;75160;53.138;18.020;2024-03-08T02:40:13;0.08;75.50
79497;SHT31;75160;53.138;18.020;2024-03-08T02:41:15;0.08;75.40
79497;SHT31;75160;53.138;18.020;2024-03-08T02:42:17;0.08;75.45
79497;SHT31;75160;53.138;18.020;2024-03-08T02:43:19;0.06;75.50
79497;SHT31;75160;53.138;18.020;2024-03-08T02:44:26;0.07;75.57
79497;SHT31;75160;53.138;18.020;2024-03-08T02:45:29;0.04;75.60
79497;SHT31;75160;53.138;18.020;2024-03-08T02:46:31;0.04;75.65
79497;SHT31;75160;53.138;18.020;2024-03-08T02:47:32;0.02;75.70
79497;SHT31;75160;53.138;18.020;2024-03-08T02:48:34;0.01;75.70
79497;SHT31;75160;53.138;18.020;2024-03-08T02:49:36;0.00;75.70
79497;SHT31;75160;53.138;18.020;2024-03-08T02:50:39;-0.01;75.70
79497;SHT31;75160;53.138;18.020;2024-03-08T02:51:43;-0.03;75.68
79497;SHT31;75160;53.138;18.020;2024-03-08T02:52:45;-0.05;75.60
79497;SHT31;75160;53.138;18.020;2024-03-08T02:53:47;-0.05;75.70
79497;SHT31;75160;53.138;18.020;2024-03-08T02:54:53;-0.08;75.72
79497;SHT31;75160;53.138;18.020;2024-03-08T02:55:54;-0.08;75.82
79497;SHT31;75160;53.138;18.020;2024-03-08T02:56:56;-0.09;75.90
79497;SHT31;75160;53.138;18.020;2024-03-08T02:57:58;-0.11;75.95
79497;SHT31;75160;53.138;18.020;2024-03-08T02:59:00;-0.12;76.00
79497;SHT31;75160;53.138;18.020;2024-03-08T03:00:02;-0.12;76.07
79497;SHT31;75160;53.138;18.020;2024-03-08T03:01:05;-0.13;76.10
79497;SHT31;75160;53.138;18.020;2024-03-08T03:02:08;-0.14;76.10
79497;SHT31;75160;53.138;18.020;2024-03-08T03:03:12;-0.14;76.07
79497;SHT31;75160;53.138;18.020;2024-03-08T03:04:14;-0.13;76.00
79497;SHT31;75160;53.138;18.020;2024-03-08T03:05:16;-0.14;76.03
79497;SHT31;75160;53.138;18.020;2024-03-08T03:06:17;-0.14;76.10
79497;SHT31;75160;53.138;18.020;2024-03-08T03:07:22;-0.11;76.13
79497;SHT31;75160;53.138;18.020;2024-03-08T03:08:24;-0.11;76.13
79497;SHT31;75160;53.138;18.020;2024-03-08T03:09:25;-0.12;76.10
79497;SHT31;75160;53.138;18.020;2024-03-08T03:10:29;-0.14;76.20
79497;SHT31;75160;53.138;18.020;2024-03-08T03:11:30;-0.12;76.20
79497;SHT31;75160;53.138;18.020;2024-03-08T03:12:33;-0.15;76.30
79497;SHT31;75160;53.138;18.020;2024-03-08T03:13:35;-0.16;76.30
79497;SHT31;75160;53.138;18.020;2024-03-08T03:14:37;-0.16;76.30
79497;SHT31;75160;53.138;18.020;2024-03-08T03:15:41;-0.18;76.32
79497;SHT31;75160;53.138;18.020;2024-03-08T03:16:43;-0.17;76.32
79497;SHT31;75160;53.138;18.020;2024-03-08T03:17:49;-0.19;76.38
79497;SHT31;75160;53.138;18.020;2024-03-08T03:18:54;-0.20;76.38
79497;SHT31;75160;53.138;18.020;2024-03-08T03:19:58;-0.21;76.40
79497;SHT31;75160;53.138;18.020;2024-03-08T03:21:00;-0.24;76.38
79497;SHT31;75160;53.138;18.020;2024-03-08T03:22:06;-0.26;76.35
79497;SHT31;75160;53.138;18.020;2024-03-08T03:23:11;-0.27;76.38
79497;SHT31;75160;53.138;18.020;2024-03-08T03:24:15;-0.28;76.40
79497;SHT31;75160;53.138;18.020;2024-03-08T03:25:20;-0.29;76.40
79497;SHT31;75160;53.138;18.020;2024-03-08T03:26:26;-0.31;76.40
79497;SHT31;75160;53.138;18.020;2024-03-08T03:27:28;-0.34;76.35
79497;SHT31;75160;53.138;18.020;2024-03-08T03:28:31;-0.36;76.30
79497;SHT31;75160;53.138;18.020;2024-03-08T03:29:34;-0.35;76.35
79497;SHT31;75160;53.138;18.020;2024-03-08T03:30:36;-0.37;76.40
79497;SHT31;75160;53.138;18.020;2024-03-08T03:31:38;-0.35;76.50
79497;SHT31;75160;53.138;18.020;2024-03-08T03:32:41;-0.33;76.40
79497;SHT31;75160;53.138;18.020;2024-03-08T03:33:48;-0.33;76.40
79497;SHT31;75160;53.138;18.020;2024-03-08T03:34:52;-0.33;76.40
79497;SHT31;75160;53.138;18.020;2024-03-08T03:35:54;-0.33;76.30
79497;SHT31;75160;53.138;18.020;2024-03-08T03:36:56;-0.36;76.25
79497;SHT31;75160;53.138;18.020;2024-03-08T03:37:58;-0.36;76.18
79497;SHT31;75160;53.138;18.020;2024-03-08T03:39:10;-0.41;76.22
79497;SHT31;75160;53.138;18.020;2024-03-08T03:40:14;-0.41;76.30
79497;SHT31;75160;53.138;18.020;2024-03-08T03:41:16;-0.44;76.30
79497;SHT31;75160;53.138;18.020;2024-03-08T03:42:19;-0.45;76.40
79497;SHT31;75160;53.138;18.020;2024-03-08T03:43:21;-0.45;76.40
79497;SHT31;75160;53.138;18.020;2024-03-08T03:44:23;-0.47;76.25
79497;SHT31;75160;53.138;18.020;2024-03-08T03:45:26;-0.50;76.20
79497;SHT31;75160;53.138;18.020;2024-03-08T03:46:28;-0.50;76.30
79497;SHT31;75160;53.138;18.020;2024-03-08T03:47:31;-0.50;76.30
79497;SHT31;75160;53.138;18.020;2024-03-08T03:48:33;-0.52;76.38
79497;SHT31;75160;53.138;18.020;2024-03-08T03:49:35;-0.52;76.35
79497;SHT31;75160;53.138;18.020;2024-03-08T03:50:36;-0.54;76.28
79497;SHT31;75160;53.138;18.020;2024-03-08T03:51:38;-0.55;76.38
79497;SHT31;75160;53.138;18.020;2024-03-08T03:52:40;-0.57;76.35
79497;SHT31;75160;53.138;18.020;2024-03-08T03:53:43;-0.57;76.40
79497;SHT31;75160;53.138;18.020;2024-03-08T03:54:45;-0.60;76.40
79497;SHT31;75160;53.138;18.020;2024-03-08T03:55:47;-0.62;76.45
79497;SHT31;75160;53.138;18.020;2024-03-08T03:56:49;-0.61;76.50
79497;SHT31;75160;53.138;18.020;2024-03-08T03:57:54;-0.63;76.50
79497;SHT31;75160;53.138;18.020;2024-03-08T03:58:56;-0.63;76.50
79497;SHT31;75160;53.138;18.020;2024-03-08T03:59:58;-0.63;76.50
79497;SHT31;75160;53.138;18.020;2024-03-08T04:01:00;-0.63;76.47
79497;SHT31;75160;53.138;18.020;2024-03-08T04:02:02;-0.64;76.40
79497;SHT31;75160;53.138;18.020;2024-03-08T04:03:05;-0.63;76.40
79497;SHT31;75160;53.138;18.020;2024-03-08T04:04:07;-0.64;76.35
79497;SHT31;75160;53.138;18.020;2024-03-08T04:05:09;-0.63;76.40
79497;SHT31;75160;53.138;18.020;2024-03-08T04:06:12;-0.63;76.30
79497;SHT31;75160;53.138;18.020;2024-03-08T04:07:14;-0.65;76.30
79497;SHT31;75160;53.138;18.020;2024-03-08T04:08:16;-0.64;76.30
79497;SHT31;75160;53.138;18.020;2024-03-08T04:09:18;-0.64;76.20
79497;SHT31;75160;53.138;18.020;2024-03-08T04:10:20;-0.63;76.20
79497;SHT31;75160;53.138;18.020;2024-03-08T04:11:22;-0.63;76.22
79497;SHT31;75160;53.138;18.020;2024-03-08T04:12:24;-0.65;76.13
79497;SHT31;75160;53.138;18.020;2024-03-08T04:13:26;-0.68;76.10
79497;SHT31;75160;53.138;18.020;2024-03-08T04:14:28;-0.68;76.20
79497;SHT31;75160;53.138;18.020;2024-03-08T04:15:30;-0.68;76.18
79497;SHT31;75160;53.138;18.020;2024-03-08T04:16:32;-0.70;76.18
79497;SHT31;75160;53.138;18.020;2024-03-08T04:17:34;-0.70;76.20
79497;SHT31;75160;53.138;18.020;2024-03-08T04:18:38;-0.69;76.25
79497;SHT31;75160;53.138;18.020;2024-03-08T04:19:41;-0.71;76.22
79497;SHT31;75160;53.138;18.020;2024-03-08T04:20:43;-0.71;76.20
79497;SHT31;75160;53.138;18.020;2024-03-08T04:21:46;-0.71;76.20
79497;SHT31;75160;53.138;18.020;2024-03-08T04:22:48;-0.73;76.20
79497;SHT31;75160;53.138;18.020;2024-03-08T04:23:50;-0.75;76.30
79497;SHT31;75160;53.138;18.020;2024-03-08T04:24:52;-0.76;76.30
79497;SHT31;75160;53.138;18.020;2024-03-08T04:25:55;-0.77;76.43
79497;SHT31;75160;53.138;18.020;2024-03-08T04:26:57;-0.80;76.50
79497;SHT31;75160;53.138;18.020;2024-03-08T04:28:01;-0.82;76.55
79497;SHT31;75160;53.138;18.020;2024-03-08T04:29:03;-0.85;76.55
79497;SHT31;75160;53.138;18.020;2024-03-08T04:30:05;-0.86;76.57
79497;SHT31;75160;53.138;18.020;2024-03-08T04:31:11;-0.88;76.68
79497;SHT31;75160;53.138;18.020;2024-03-08T04:32:13;-0.90;76.70
79497;SHT31;75160;53.138;18.020;2024-03-08T04:33:14;-0.93;76.72
79497;SHT31;75160;53.138;18.020;2024-03-08T04:34:18;-0.95;76.80
79497;SHT31;75160;53.138;18.020;2024-03-08T04:35:21;-0.96;76.85
79497;SHT31;75160;53.138;18.020;2024-03-08T04:36:23;-0.97;76.93
79497;SHT31;75160;53.138;18.020;2024-03-08T04:37:26;-1.00;76.90
79497;SHT31;75160;53.138;18.020;2024-03-08T04:38:30;-1.00;76.90
79497;SHT31;75160;53.138;18.020;2024-03-08T04:39:32;-1.01;76.88
79497;SHT31;75160;53.138;18.020;2024-03-08T04:40:34;-1.02;76.85
79497;SHT31;75160;53.138;18.020;2024-03-08T04:41:36;-1.03;76.85
79497;SHT31;75160;53.138;18.020;2024-03-08T04:42:39;-1.03;76.80
79497;SHT31;75160;53.138;18.020;2024-03-08T04:43:44;-1.03;76.72
79497;SHT31;75160;53.138;18.020;2024-03-08T04:44:46;-1.03;76.70
79497;SHT31;75160;53.138;18.020;2024-03-08T04:45:47;-1.01;76.70
79497;SHT31;75160;53.138;18.020;2024-03-08T04:46:50;-1.01;76.80
79497;SHT31;75160;53.138;18.020;2024-03-08T04:47:52;-1.01;76.80
79497;SHT31;75160;53.138;18.020;2024-03-08T04:48:54;-1.02;76.75
79497;SHT31;75160;53.138;18.020;2024-03-08T04:49:56;-1.03;76.78
79497;SHT31;75160;53.138;18.020;2024-03-08T04:50:58;-1.01;76.75
79497;SHT31;75160;53.138;18.020;2024-03-08T04:52:01;-1.04;76.75
79497;SHT31;75160;53.138;18.020;2024-03-08T04:53:04;-1.04;76.75
79497;SHT31;75160;53.138;18.020;2024-03-08T04:54:09;-1.02;76.80
79497;SHT31;75160;53.138;18.020;2024-03-08T04:55:11;-1.03;76.80
79497;SHT31;75160;53.138;18.020;2024-03-08T04:56:13;-1.03;76.80
79497;SHT31;75160;53.138;18.020;2024-03-08T04:57:15;-1.03;76.80
79497;SHT31;75160;53.138;18.020;2024-03-08T04:58:19;-1.02;76.88
79497;SHT31;75160;53.138;18.020;2024-03-08T04:59:22;-1.02;77.00
79497;SHT31;75160;53.138;18.020;2024-03-08T05:00:25;-1.02;77.00
79497;SHT31;75160;53.138;18.020;2024-03-08T05:01:27;-1.02;77.00
79497;SHT31;75160;53.138;18.020;2024-03-08T05:02:29;-1.03;76.95
79497;SHT31;75160;53.138;18.020;2024-03-08T05:03:31;-1.02;77.00
79497;SHT31;75160;53.138;18.020;2024-03-08T05:04:32;-1.02;77.00
79497;SHT31;75160;53.138;18.020;2024-03-08T05:05:35;-1.02;77.03
79497;SHT31;75160;53.138;18.020;2024-03-08T05:06:37;-1.00;77.13
79497;SHT31;75160;53.138;18.020;2024-03-08T05:07:39;-1.00;77.22
79497;SHT31;75160;53.138;18.020;2024-03-08T05:08:41;-1.01;77.28
79497;SHT31;75160;53.138;18.020;2024-03-08T05:09:43;-1.01;77.20
79497;SHT31;75160;53.138;18.020;2024-03-08T05:10:52;-1.02;77.25
79497;SHT31;75160;53.138;18.020;2024-03-08T05:11:56;-1.02;77.30
79497;SHT31;75160;53.138;18.020;2024-03-08T05:13:00;-1.03;77.30
79497;SHT31;75160;53.138;18.020;2024-03-08T05:14:02;-1.05;77.30
79497;SHT31;75160;53.138;18.020;2024-03-08T05:15:04;-1.05;77.30
79497;SHT31;75160;53.138;18.020;2024-03-08T05:16:08;-1.05;77.28
79497;SHT31;75160;53.138;18.020;2024-03-08T05:17:10;-1.03;77.20
79497;SHT31;75160;53.138;18.020;2024-03-08T05:18:12;-1.03;77.20
79497;SHT31;75160;53.138;18.020;2024-03-08T05:19:16;-1.03;77.25
79497;SHT31;75160;53.138;18.020;2024-03-08T05:20:20;-1.03;77.10
79497;SHT31;75160;53.138;18.020;2024-03-08T05:21:23;-1.02;77.10
79497;SHT31;75160;53.138;18.020;2024-03-08T05:22:25;-1.02;77.07
79497;SHT31;75160;53.138;18.020;2024-03-08T05:23:27;-1.02;77.03
79497;SHT31;75160;53.138;18.020;2024-03-08T05:24:30;-1.03;77.10
79497;SHT31;75160;53.138;18.020;2024-03-08T05:25:32;-1.04;77.15
79497;SHT31;75160;53.138;18.020;2024-03-08T05:26:34;-1.04;77.20
79497;SHT31;75160;53.138;18.020;2024-03-08T05:27:36;-1.05;77.15
79497;SHT31;75160;53.138;18.020;2024-03-08T05:28:37;-1.05;77.10
79497;SHT31;75160;53.138;18.020;2024-03-08T05:29:39;-1.07;77.05
79497;SHT31;75160;53.138;18.020;2024-03-08T05:30:41;-1.07;77.00
79497;SHT31;75160;53.138;18.020;2024-03-08T05:31:49;-1.09;76.97
79497;SHT31;75160;53.138;18.020;2024-03-08T05:32:53;-1.07;76.97
79497;SHT31;75160;53.138;18.020;2024-03-08T05:33:55;-1.08;76.95
79497;SHT31;75160;53.138;18.020;2024-03-08T05:34:59;-1.09;76.80
79497;SHT31;75160;53.138;18.020;2024-03-08T05:36:01;-1.10;76.80
79497;SHT31;75160;53.138;18.020;2024-03-08T05:37:04;-1.11;76.82
79497;SHT31;75160;53.138;18.020;2024-03-08T05:38:06;-1.11;76.88
79497;SHT31;75160;53.138;18.020;2024-03-08T05:39:08;-1.10;76.90
79497;SHT31;75160;53.138;18.020;2024-03-08T05:40:11;-1.08;76.85
79497;SHT31;75160;53.138;18.020;2024-03-08T05:41:12;-1.09;76.88
79497;SHT31;75160;53.138;18.020;2024-03-08T05:42:14;-1.09;76.80
79497;SHT31;75160;53.138;18.020;2024-03-08T05:43:16;-1.10;76.78
79497;SHT31;75160;53.138;18.020;2024-03-08T05:44:20;-1.11;76.80
79497;SHT31;75160;53.138;18.020;2024-03-08T05:45:23;-1.10;76.72
79497;SHT31;75160;53.138;18.020;2024-03-08T05:46:27;-1.12;76.82
79497;SHT31;75160;53.138;18.020;2024-03-08T05:47:29;-1.12;77.00
79497;SHT31;75160;53.138;18.020;2024-03-08T05:48:31;-1.12;77.10
79497;SHT31;75160;53.138;18.020;2024-03-08T05:49:35;-1.12;77.20
79497;SHT31;75160;53.138;18.020;2024-03-08T05:50:37;-1.13;77.32
79497;SHT31;75160;53.138;18.020;2024-03-08T05:51:40;-1.14;77.45
79497;SHT31;75160;53.138;18.020;2024-03-08T05:52:42;-1.15;77.50
79497;SHT31;75160;53.138;18.020;2024-03-08T05:53:45;-1.15;77.60
79497;SHT31;75160;53.138;18.020;2024-03-08T05:54:46;-1.17;77.60
79497;SHT31;75160;53.138;18.020;2024-03-08T05:55:48;-1.16;77.60
79497;SHT31;75160;53.138;18.020;2024-03-08T05:56:50;-1.17;77.65
79497;SHT31;75160;53.138;18.020;2024-03-08T05:57:54;-1.17;77.70
79497;SHT31;75160;53.138;18.020;2024-03-08T05:58:58;-1.18;77.70
79497;SHT31;75160;53.138;18.020;2024-03-08T06:00:00;-1.18;77.72
79497;SHT31;75160;53.138;18.020;2024-03-08T06:01:03;-1.19;77.72
79497;SHT31;75160;53.138;18.020;2024-03-08T06:02:10;-1.20;77.75
79497;SHT31;75160;53.138;18.020;2024-03-08T06:03:12;-1.20;77.72
79497;SHT31;75160;53.138;18.020;2024-03-08T06:04:15;-1.22;77.80
79497;SHT31;75160;53.138;18.020;2024-03-08T06:05:19;-1.21;77.80
79497;SHT31;75160;53.138;18.020;2024-03-08T06:06:21;-1.21;77.85
79497;SHT31;75160;53.138;18.020;2024-03-08T06:07:24;-1.22;77.85
79497;SHT31;75160;53.138;18.020;2024-03-08T06:08:26;-1.25;77.90
79497;SHT31;75160;53.138;18.020;2024-03-08T06:09:31;-1.25;77.93
79497;SHT31;75160;53.138;18.020;2024-03-08T06:10:33;-1.25;78.00
79497;SHT31;75160;53.138;18.020;2024-03-08T06:11:35;-1.26;78.10
79497;SHT31;75160;53.138;18.020;2024-03-08T06:12:39;-1.27;78.18
79497;SHT31;75160;53.138;18.020;2024-03-08T06:13:44;-1.26;78.28
79497;SHT31;75160;53.138;18.020;2024-03-08T06:14:47;-1.27;78.22
79497;SHT31;75160;53.138;18.020;2024-03-08T06:15:50;-1.26;78.28
79497;SHT31;75160;53.138;18.020;2024-03-08T06:16:52;-1.26;78.20
79497;SHT31;75160;53.138;18.020;2024-03-08T06:17:54;-1.25;78.20
79497;SHT31;75160;53.138;18.020;2024-03-08T06:18:56;-1.25;78.20
79497;SHT31;75160;53.138;18.020;2024-03-08T06:19:58;-1.25;78.28
79497;SHT31;75160;53.138;18.020;2024-03-08T06:21:00;-1.24;78.28
79497;SHT31;75160;53.138;18.020;2024-03-08T06:22:03;-1.23;78.25
79497;SHT31;75160;53.138;18.020;2024-03-08T06:23:07;-1.23;78.20
79497;SHT31;75160;53.138;18.020;2024-03-08T06:24:10;-1.20;78.25
79497;SHT31;75160;53.138;18.020;2024-03-08T06:25:12;-1.20;78.20
79497;SHT31;75160;53.138;18.020;2024-03-08T06:26:15;-1.19;78.20
79497;SHT31;75160;53.138;18.020;2024-03-08T06:27:18;-1.20;78.22
79497;SHT31;75160;53.138;18.020;2024-03-08T06:28:20;-1.18;78.20
79497;SHT31;75160;53.138;18.020;2024-03-08T06:29:21;-1.20;78.20
79497;SHT31;75160;53.138;18.020;2024-03-08T06:30:23;-1.16;78.20
79497;SHT31;75160;53.138;18.020;2024-03-08T06:31:25;-1.16;78.22
79497;SHT31;75160;53.138;18.020;2024-03-08T06:32:28;-1.16;78.20